createdAt,value
2023-02-21T00:00:32.436Z,1.30
2023-02-21T00:03:17.706Z,1.39
2023-02-21T00:06:03.158Z,1.25
2023-02-21T00:08:48.473Z,1.27
2023-02-21T00:11:33.810Z,1.28
2023-02-21T00:14:19.031Z,1.10
2023-02-21T00:17:05.238Z,0.91
2023-02-21T00:19:50.665Z,0.55
2023-02-21T00:22:35.884Z,0.56
2023-02-21T00:25:21.183Z,0.62
2023-02-21T00:28:06.495Z,0.60
2023-02-21T00:30:51.778Z,0.59
2023-02-21T00:33:37.348Z,0.49
2023-02-21T00:36:22.446Z,0.57
2023-02-21T00:39:08.260Z,0.58
2023-02-21T00:41:53.567Z,0.57
2023-02-21T00:44:38.766Z,0.64
2023-02-21T00:47:24.217Z,0.65
2023-02-21T00:50:09.435Z,0.52
2023-02-21T00:52:54.818Z,0.48
2023-02-21T00:55:40.171Z,0.50
2023-02-21T00:58:25.389Z,0.59
2023-02-21T01:01:10.578Z,0.58
2023-02-21T01:03:55.759Z,0.67
2023-02-21T01:06:40.987Z,0.37
2023-02-21T01:09:26.818Z,0.84
2023-02-21T01:12:12.017Z,0.81
2023-02-21T01:14:57.366Z,0.94
2023-02-21T01:17:44.314Z,1.03
2023-02-21T01:20:29.608Z,0.75
2023-02-21T01:23:16.398Z,0.75
2023-02-21T01:26:01.669Z,0.65
2023-02-21T01:28:47.432Z,0.86
2023-02-21T01:31:39.762Z,0.93
2023-02-21T01:34:25.403Z,0.96
2023-02-21T01:37:10.734Z,0.89
2023-02-21T01:39:57.047Z,0.86
2023-02-21T01:42:42.791Z,0.78
2023-02-21T01:45:40.420Z,0.83
2023-02-21T01:48:31.861Z,0.69
2023-02-21T01:51:18.180Z,0.58
2023-02-21T01:54:04.489Z,0.36
2023-02-21T01:56:50.463Z,0.54
2023-02-21T01:59:37.285Z,0.52
2023-02-21T02:02:36.762Z,0.44
2023-02-21T02:05:25.807Z,0.37
2023-02-21T02:08:11.586Z,0.31
2023-02-21T02:11:00.004Z,0.54
2023-02-21T02:13:57.890Z,0.64
2023-02-21T02:16:24.706Z,0.71
2023-02-21T02:19:18.641Z,0.66
2023-02-21T02:22:21.578Z,0.57
2023-02-21T02:25:30.769Z,0.42
2023-02-21T02:28:15.803Z,0.44
2023-02-21T02:31:04.306Z,0.38
2023-02-21T02:34:06.296Z,0.33
2023-02-21T02:36:43.273Z,0.27
2023-02-21T02:39:46.429Z,0.21
2023-02-21T02:42:29.562Z,0.25
2023-02-21T02:45:34.540Z,0.50
2023-02-21T02:48:23.790Z,0.59
2023-02-21T02:50:52.131Z,0.61
2023-02-21T02:53:27.958Z,0.62
2023-02-21T02:55:59.457Z,0.71
2023-02-21T02:58:29.808Z,0.73
2023-02-21T03:01:24.340Z,0.63
2023-02-21T03:04:06.753Z,0.65
2023-02-21T03:06:55.255Z,0.62
2023-02-21T03:09:30.855Z,0.48
2023-02-21T03:12:16.646Z,0.25
2023-02-21T03:15:07.925Z,0.06
2023-02-21T03:17:41.250Z,0.00
2023-02-21T03:20:10.974Z,0.01
2023-02-21T03:22:40.548Z,-0.02
2023-02-21T03:25:09.137Z,0.15
2023-02-21T03:27:39.437Z,-0.03
2023-02-21T03:30:16.282Z,0.08
2023-02-21T03:32:49.410Z,0.22
2023-02-21T03:35:17.773Z,0.27
2023-02-21T03:37:54.383Z,0.12
2023-02-21T03:40:33.987Z,-0.06
2023-02-21T03:43:07.202Z,0.08
2023-02-21T03:45:41.659Z,0.20
2023-02-21T03:48:17.740Z,0.26
2023-02-21T03:50:51.067Z,0.26
2023-02-21T03:53:19.251Z,0.02
2023-02-21T03:55:46.349Z,0.01
2023-02-21T03:58:19.085Z,0.00
2023-02-21T04:00:45.867Z,0.07
2023-02-21T04:03:13.921Z,0.10
2023-02-21T04:05:47.486Z,0.07
2023-02-21T04:08:15.027Z,-0.04
2023-02-21T04:10:51.704Z,0.01
2023-02-21T04:13:21.228Z,-0.13
2023-02-21T04:15:49.788Z,-0.23
2023-02-21T04:18:17.057Z,-0.09
2023-02-21T04:20:46.855Z,-0.02
2023-02-21T04:23:21.104Z,0.04
2023-02-21T04:25:48.273Z,0.06
2023-02-21T04:28:21.073Z,0.04
2023-02-21T04:30:48.691Z,0.00
2023-02-21T04:33:15.961Z,-0.11
2023-02-21T04:35:42.784Z,-0.34
2023-02-21T04:38:19.760Z,-0.38
2023-02-21T04:40:46.550Z,-0.51
2023-02-21T04:43:13.293Z,-0.47
2023-02-21T04:45:40.262Z,-0.64
2023-02-21T04:48:07.196Z,-0.45
2023-02-21T04:50:33.874Z,-0.28
2023-02-21T04:53:00.726Z,-0.29
2023-02-21T04:55:27.454Z,-0.03
2023-02-21T04:57:54.157Z,0.06
2023-02-21T05:00:21.069Z,0.15
2023-02-21T05:02:47.765Z,0.14
2023-02-21T05:05:14.498Z,0.14
2023-02-21T05:07:42.608Z,0.15
2023-02-21T05:10:09.985Z,0.07
2023-02-21T05:12:39.642Z,-0.01
2023-02-21T05:15:07.437Z,0.15
2023-02-21T05:17:34.398Z,0.19
2023-02-21T05:20:01.665Z,-0.06
2023-02-21T05:22:34.445Z,-0.13
2023-02-21T05:25:02.226Z,-0.27
2023-02-21T05:27:28.990Z,-0.24
2023-02-21T05:29:55.682Z,-0.31
2023-02-21T05:32:22.781Z,-0.25
2023-02-21T05:34:49.466Z,-0.21
2023-02-21T05:37:18.481Z,-0.39
2023-02-21T05:39:45.278Z,-0.15
2023-02-21T05:42:11.974Z,-0.12
2023-02-21T05:44:38.683Z,-0.04
2023-02-21T05:47:07.282Z,0.03
2023-02-21T05:49:33.997Z,-0.04
2023-02-21T05:52:00.786Z,-0.10
2023-02-21T05:54:27.637Z,-0.38
2023-02-21T05:56:54.482Z,-0.20
2023-02-21T05:59:21.659Z,-0.22
2023-02-21T06:01:48.751Z,-0.32
2023-02-21T06:04:15.959Z,-0.34
2023-02-21T06:06:42.951Z,-0.47
2023-02-21T06:09:09.851Z,-0.43
2023-02-21T06:11:38.324Z,-0.48
2023-02-21T06:14:08.650Z,-0.38
2023-02-21T06:16:37.636Z,-0.37
2023-02-21T06:19:06.859Z,-0.25
2023-02-21T06:21:33.850Z,-0.29
2023-02-21T06:24:00.549Z,-0.11
2023-02-21T06:26:27.904Z,-0.16
2023-02-21T06:28:54.607Z,-0.06
2023-02-21T06:31:21.791Z,-0.01
2023-02-21T06:33:49.697Z,0.18
2023-02-21T06:36:22.421Z,0.30
2023-02-21T06:38:51.517Z,0.31
2023-02-21T06:41:20.424Z,0.29
2023-02-21T06:43:47.285Z,0.27
2023-02-21T06:46:22.453Z,0.34
2023-02-21T06:48:49.764Z,0.39
2023-02-21T06:51:16.591Z,0.46
2023-02-21T06:53:45.721Z,0.62
2023-02-21T06:56:12.469Z,0.88
2023-02-21T06:58:39.168Z,1.06
2023-02-21T07:01:05.938Z,1.38
2023-02-21T07:03:32.658Z,1.69
2023-02-21T07:05:59.345Z,2.03
2023-02-21T07:08:26.535Z,2.42
2023-02-21T07:10:53.366Z,2.70
2023-02-21T07:13:22.346Z,2.93
2023-02-21T07:15:49.226Z,3.25
2023-02-21T07:18:15.967Z,3.46
2023-02-21T07:20:42.766Z,3.62
2023-02-21T07:23:10.833Z,3.67
2023-02-21T07:25:37.607Z,3.78
2023-02-21T07:28:04.544Z,4.15
2023-02-21T07:30:31.938Z,4.39
2023-02-21T07:32:59.350Z,4.66
2023-02-21T07:35:26.692Z,4.89
2023-02-21T07:37:53.476Z,5.13
2023-02-21T07:40:20.281Z,4.90
2023-02-21T07:42:48.072Z,4.46
2023-02-21T07:45:16.258Z,4.02
2023-02-21T07:47:47.892Z,4.02
2023-02-21T07:50:16.571Z,4.06
2023-02-21T07:52:43.802Z,4.08
2023-02-21T07:55:12.476Z,4.18
2023-02-21T07:57:39.166Z,4.26
2023-02-21T08:00:06.831Z,4.35
2023-02-21T08:02:39.885Z,4.54
2023-02-21T08:05:08.709Z,4.74
2023-02-21T08:07:35.456Z,4.73
2023-02-21T08:10:02.157Z,4.80
2023-02-21T08:12:28.851Z,4.95
2023-02-21T08:14:55.563Z,5.11
2023-02-21T08:17:22.372Z,5.31
2023-02-21T08:19:49.347Z,5.48
2023-02-21T08:22:16.040Z,5.82
2023-02-21T08:24:42.746Z,6.03
2023-02-21T08:27:10.442Z,6.39
2023-02-21T08:29:37.237Z,6.65
2023-02-21T08:32:04.281Z,6.98
2023-02-21T08:34:31.018Z,7.27
2023-02-21T08:37:01.233Z,7.44
2023-02-21T08:39:35.717Z,7.70
2023-02-21T08:42:04.293Z,8.07
2023-02-21T08:44:31.023Z,8.56
2023-02-21T08:46:57.923Z,8.41
2023-02-21T08:49:24.772Z,8.42
2023-02-21T08:51:51.465Z,9.00
2023-02-21T08:54:19.357Z,9.43
2023-02-21T08:56:46.087Z,9.66
2023-02-21T08:59:12.815Z,10.24
2023-02-21T09:01:39.747Z,10.70
2023-02-21T09:04:06.956Z,10.76
2023-02-21T09:06:33.877Z,11.20
2023-02-21T09:09:00.589Z,11.80
2023-02-21T09:11:27.310Z,12.09
2023-02-21T09:13:55.236Z,12.53
2023-02-21T09:16:22.458Z,12.55
2023-02-21T09:18:59.916Z,13.11
2023-02-21T09:21:27.546Z,13.14
2023-02-21T09:23:56.732Z,12.66
2023-02-21T09:26:24.057Z,12.81
2023-02-21T09:29:00.547Z,12.13
2023-02-21T09:31:31.687Z,11.83
2023-02-21T09:33:58.821Z,12.02
2023-02-21T09:36:25.461Z,12.22
2023-02-21T09:38:52.407Z,12.58
2023-02-21T09:41:20.009Z,12.78
2023-02-21T09:43:51.011Z,13.20
2023-02-21T09:46:49.349Z,13.97
2023-02-21T09:49:30.603Z,14.79
2023-02-21T09:51:59.582Z,15.42
2023-02-21T09:54:33.742Z,16.00
2023-02-21T09:57:04.497Z,16.49
2023-02-21T09:59:31.773Z,16.97
2023-02-21T10:02:10.727Z,17.12
2023-02-21T10:04:43.921Z,16.73
2023-02-21T10:07:32.125Z,17.16
2023-02-21T10:10:19.202Z,17.63
2023-02-21T10:13:06.845Z,18.17
2023-02-21T10:15:59.800Z,17.94
2023-02-21T10:19:03.466Z,17.94
2023-02-21T10:21:42.009Z,17.97
2023-02-21T10:24:15.402Z,18.32
2023-02-21T10:26:48.566Z,18.45
2023-02-21T10:29:28.538Z,18.17
2023-02-21T10:32:03.365Z,18.46
2023-02-21T10:34:32.716Z,18.63
2023-02-21T10:37:06.771Z,18.69
2023-02-21T10:39:51.646Z,19.02
2023-02-21T10:42:42.436Z,19.39
2023-02-21T10:45:12.162Z,19.93
2023-02-21T10:47:47.763Z,20.42
2023-02-21T10:50:14.554Z,20.44
2023-02-21T10:52:51.685Z,20.52
2023-02-21T10:55:31.763Z,20.81
2023-02-21T10:58:07.146Z,21.20
2023-02-21T11:00:41.912Z,21.44
2023-02-21T11:03:27.741Z,21.67
2023-02-21T11:05:59.800Z,21.53
2023-02-21T11:08:44.827Z,21.01
2023-02-21T11:11:11.831Z,20.81
2023-02-21T11:13:38.806Z,20.91
2023-02-21T11:16:11.499Z,21.40
2023-02-21T11:18:38.488Z,21.78
2023-02-21T11:21:13.620Z,22.08
2023-02-21T11:23:59.093Z,22.02
2023-02-21T11:26:25.985Z,22.30
2023-02-21T11:28:53.048Z,22.50
2023-02-21T11:31:22.520Z,22.52
2023-02-21T11:33:57.654Z,22.68
2023-02-21T11:36:50.725Z,22.79
2023-02-21T11:39:19.708Z,22.66
2023-02-21T11:41:52.572Z,22.64
2023-02-21T11:44:29.596Z,22.71
2023-02-21T11:47:11.788Z,22.43
2023-02-21T11:50:06.309Z,22.11
2023-02-21T11:52:48.831Z,22.10
2023-02-21T11:55:24.093Z,22.21
2023-02-21T11:58:02.570Z,22.74
2023-02-21T12:00:44.192Z,23.14
2023-02-21T12:03:58.103Z,23.30
2023-02-21T12:06:26.836Z,23.33
2023-02-21T12:09:01.656Z,22.96
2023-02-21T12:11:43.620Z,23.21
2023-02-21T12:14:28.549Z,23.07
2023-02-21T12:17:27.005Z,22.00
2023-02-21T12:20:30.667Z,22.16
2023-02-21T12:23:18.955Z,22.03
2023-02-21T12:26:29.858Z,22.28
2023-02-21T12:29:02.230Z,22.42
2023-02-21T12:31:51.463Z,22.18
2023-02-21T12:34:40.271Z,22.76
2023-02-21T12:37:38.050Z,23.15
2023-02-21T12:40:49.587Z,23.55
2023-02-21T12:43:32.671Z,23.85
2023-02-21T12:45:59.393Z,24.19
2023-02-21T12:48:25.873Z,23.91
2023-02-21T12:50:58.314Z,23.84
2023-02-21T12:53:36.753Z,23.33
2023-02-21T12:56:12.464Z,22.47
2023-02-21T12:58:59.585Z,22.49
2023-02-21T13:01:30.892Z,21.89
2023-02-21T13:04:12.534Z,22.30
2023-02-21T13:06:59.998Z,22.89
2023-02-21T13:09:50.115Z,23.32
2023-02-21T13:12:21.403Z,23.34
2023-02-21T13:14:57.313Z,23.16
2023-02-21T13:17:24.282Z,22.51
2023-02-21T13:19:58.266Z,22.42
2023-02-21T13:23:05.344Z,22.34
2023-02-21T13:25:56.427Z,22.00
2023-02-21T13:28:25.744Z,22.39
2023-02-21T13:30:59.384Z,21.90
2023-02-21T13:33:45.256Z,21.78
2023-02-21T13:36:26.392Z,21.81
2023-02-21T13:39:37.777Z,21.71
2023-02-21T13:42:09.171Z,21.49
2023-02-21T13:45:16.870Z,21.24
2023-02-21T13:47:59.982Z,21.52
2023-02-21T13:50:38.903Z,21.45
2023-02-21T13:53:08.838Z,21.29
2023-02-21T13:55:40.081Z,21.09
2023-02-21T13:58:07.484Z,21.12
2023-02-21T14:00:34.222Z,21.07
2023-02-21T14:03:06.875Z,21.03
2023-02-21T14:05:45.938Z,20.89
2023-02-21T14:08:15.829Z,20.88
2023-02-21T14:11:05.230Z,20.43
2023-02-21T14:13:41.282Z,20.60
2023-02-21T14:16:08.117Z,20.48
2023-02-21T14:18:57.850Z,20.50
2023-02-21T14:21:37.254Z,20.44
2023-02-21T14:24:09.901Z,20.64
2023-02-21T14:26:41.741Z,20.57
2023-02-21T14:29:08.410Z,20.39
2023-02-21T14:31:48.421Z,20.06
2023-02-21T14:34:23.466Z,20.27
2023-02-21T14:36:52.179Z,20.25
2023-02-21T14:39:19.682Z,20.03
2023-02-21T14:42:00.152Z,20.27
2023-02-21T14:44:40.700Z,20.31
2023-02-21T14:47:29.342Z,20.30
2023-02-21T14:50:12.549Z,20.35
2023-02-21T14:53:02.510Z,20.54
2023-02-21T14:55:50.679Z,20.57
2023-02-21T14:58:35.484Z,20.48
2023-02-21T15:01:08.156Z,20.41
2023-02-21T15:03:46.678Z,20.35
2023-02-21T15:06:21.015Z,20.46
2023-02-21T15:08:51.676Z,20.57
2023-02-21T15:11:33.914Z,20.35
2023-02-21T15:14:23.250Z,20.06
2023-02-21T15:17:11.855Z,19.90
2023-02-21T15:19:38.942Z,19.85
2023-02-21T15:22:08.552Z,19.66
2023-02-21T15:24:35.390Z,19.61
2023-02-21T15:27:12.139Z,19.65
2023-02-21T15:29:42.505Z,19.57
2023-02-21T15:32:12.570Z,19.56
2023-02-21T15:34:42.870Z,19.68
2023-02-21T15:37:18.746Z,19.62
2023-02-21T15:39:54.527Z,19.56
2023-02-21T15:42:23.450Z,19.42
2023-02-21T15:44:55.708Z,19.18
2023-02-21T15:47:24.219Z,18.76
2023-02-21T15:50:11.450Z,18.79
2023-02-21T15:52:41.314Z,18.83
2023-02-21T15:55:20.054Z,18.72
2023-02-21T15:58:06.125Z,18.83
2023-02-21T16:00:36.703Z,18.91
2023-02-21T16:03:43.042Z,18.65
2023-02-21T16:06:12.196Z,18.37
2023-02-21T16:09:04.442Z,18.04
2023-02-21T16:11:46.103Z,17.81
2023-02-21T16:14:32.732Z,17.61
2023-02-21T16:17:22.754Z,17.48
2023-02-21T16:19:53.938Z,17.20
2023-02-21T16:22:38.801Z,16.91
2023-02-21T16:25:12.837Z,16.67
2023-02-21T16:27:41.786Z,16.33
2023-02-21T16:30:14.261Z,16.09
2023-02-21T16:32:43.926Z,15.97
2023-02-21T16:35:21.274Z,15.81
2023-02-21T16:37:53.232Z,15.57
2023-02-21T16:40:26.675Z,15.47
2023-02-21T16:42:55.207Z,15.31
2023-02-21T16:45:23.393Z,15.13
2023-02-21T16:47:55.863Z,14.91
2023-02-21T16:50:29.336Z,14.49
2023-02-21T16:52:56.126Z,14.33
2023-02-21T16:55:22.974Z,14.00
2023-02-21T16:57:53.913Z,13.77
2023-02-21T17:00:22.180Z,13.65
2023-02-21T17:02:50.475Z,13.52
2023-02-21T17:05:18.331Z,13.22
2023-02-21T17:07:45.203Z,13.10
2023-02-21T17:10:12.010Z,12.71
2023-02-21T17:12:38.757Z,12.34
2023-02-21T17:15:05.878Z,11.99
2023-02-21T17:17:32.671Z,11.63
2023-02-21T17:19:59.372Z,11.18
2023-02-21T17:22:26.094Z,11.11
2023-02-21T17:24:53.076Z,11.06
2023-02-21T17:27:20.041Z,10.99
2023-02-21T17:29:48.378Z,10.74
2023-02-21T17:32:16.390Z,10.59
2023-02-21T17:34:43.701Z,10.46
2023-02-21T17:37:10.443Z,10.62
2023-02-21T17:39:37.346Z,10.67
2023-02-21T17:42:04.267Z,10.74
2023-02-21T17:44:31.044Z,10.77
2023-02-21T17:46:57.983Z,10.73
2023-02-21T17:49:27.485Z,10.59
2023-02-21T17:51:55.018Z,10.59
2023-02-21T17:54:24.238Z,10.18
2023-02-21T17:56:51.270Z,9.78
2023-02-21T17:59:19.407Z,9.54
2023-02-21T18:01:46.790Z,9.53
2023-02-21T18:04:14.286Z,9.43
2023-02-21T18:06:42.238Z,9.43
2023-02-21T18:09:09.754Z,9.58
2023-02-21T18:11:36.903Z,9.53
2023-02-21T18:14:03.984Z,9.34
2023-02-21T18:16:31.107Z,9.04
2023-02-21T18:18:57.755Z,8.99
2023-02-21T18:21:25.036Z,8.88
2023-02-21T18:23:52.046Z,8.85
2023-02-21T18:26:19.105Z,8.75
2023-02-21T18:28:45.902Z,8.80
2023-02-21T18:31:17.841Z,8.96
2023-02-21T18:33:45.402Z,9.12
2023-02-21T18:36:12.413Z,9.09
2023-02-21T18:38:40.932Z,8.72
2023-02-21T18:41:16.768Z,8.73
2023-02-21T18:43:44.241Z,8.54
2023-02-21T18:46:13.251Z,8.39
2023-02-21T18:48:45.307Z,8.06
2023-02-21T18:51:14.615Z,8.07
2023-02-21T18:53:43.964Z,8.07
2023-02-21T18:56:12.674Z,7.93
2023-02-21T18:58:39.844Z,7.54
2023-02-21T19:01:06.986Z,7.61
2023-02-21T19:03:33.837Z,7.70
2023-02-21T19:06:00.897Z,7.78
2023-02-21T19:08:27.839Z,7.86
2023-02-21T19:10:54.579Z,7.84
2023-02-21T19:13:21.350Z,7.67
2023-02-21T19:15:48.045Z,7.64
2023-02-21T19:18:14.857Z,7.54
2023-02-21T19:20:43.650Z,7.24
2023-02-21T19:23:12.045Z,7.56
2023-02-21T19:25:39.099Z,7.72
2023-02-21T19:28:06.894Z,7.37
2023-02-21T19:30:36.865Z,6.81
2023-02-21T19:33:06.005Z,6.60
2023-02-21T19:35:34.236Z,6.95
2023-02-21T19:38:07.179Z,6.99
2023-02-21T19:40:35.325Z,6.90
2023-02-21T19:43:02.209Z,6.80
2023-02-21T19:45:29.079Z,6.57
2023-02-21T19:47:55.798Z,6.41
2023-02-21T19:50:22.508Z,6.65
2023-02-21T19:52:54.863Z,6.90
2023-02-21T19:55:22.178Z,6.98
2023-02-21T19:57:49.117Z,7.14
2023-02-21T20:00:16.335Z,7.10
2023-02-21T20:02:44.569Z,6.98
2023-02-21T20:05:14.020Z,6.73
2023-02-21T20:07:41.380Z,6.59
2023-02-21T20:10:10.312Z,6.52
2023-02-21T20:12:37.234Z,6.42
2023-02-21T20:15:05.702Z,6.33
2023-02-21T20:17:35.086Z,6.21
2023-02-21T20:20:02.026Z,6.09
2023-02-21T20:22:33.924Z,6.08
2023-02-21T20:25:01.686Z,5.97
2023-02-21T20:27:28.569Z,5.96
2023-02-21T20:29:55.436Z,5.81
2023-02-21T20:32:22.376Z,5.66
2023-02-21T20:34:50.993Z,5.65
2023-02-21T20:37:19.219Z,5.59
2023-02-21T20:39:48.927Z,5.49
2023-02-21T20:42:16.322Z,5.52
2023-02-21T20:44:44.317Z,5.44
2023-02-21T20:47:11.501Z,5.52
2023-02-21T20:49:39.120Z,5.52
2023-02-21T20:52:06.218Z,5.41
2023-02-21T20:54:32.918Z,5.24
2023-02-21T20:56:59.730Z,4.87
2023-02-21T20:59:35.370Z,4.84
2023-02-21T21:02:03.604Z,4.74
2023-02-21T21:04:33.215Z,4.70
2023-02-21T21:07:02.997Z,4.68
2023-02-21T21:09:34.019Z,4.59
2023-02-21T21:12:03.064Z,4.29
2023-02-21T21:14:31.772Z,4.29
2023-02-21T21:16:59.888Z,4.25
2023-02-21T21:19:33.189Z,4.17
2023-02-21T21:22:09.128Z,3.97
2023-02-21T21:24:37.077Z,4.15
2023-02-21T21:27:08.771Z,4.13
2023-02-21T21:29:38.000Z,4.10
2023-02-21T21:32:05.912Z,4.05
2023-02-21T21:34:33.246Z,4.12
2023-02-21T21:37:02.233Z,4.15
2023-02-21T21:39:29.070Z,4.02
2023-02-21T21:42:08.960Z,3.96
2023-02-21T21:44:38.174Z,3.94
2023-02-21T21:47:05.643Z,3.79
2023-02-21T21:49:34.913Z,3.83
2023-02-21T21:52:04.545Z,3.81
2023-02-21T21:54:36.104Z,3.70
2023-02-21T21:57:04.242Z,3.66
2023-02-21T21:59:32.468Z,3.68
2023-02-21T22:01:59.483Z,3.53
2023-02-21T22:04:26.844Z,3.21
2023-02-21T22:06:56.790Z,3.01
2023-02-21T22:09:25.536Z,3.16
2023-02-21T22:11:53.103Z,3.25
2023-02-21T22:14:22.566Z,3.22
2023-02-21T22:16:51.212Z,3.14
2023-02-21T22:19:20.081Z,3.05
2023-02-21T22:21:47.751Z,2.78
2023-02-21T22:24:16.066Z,2.51
2023-02-21T22:26:44.879Z,2.80
2023-02-21T22:29:16.523Z,2.75
2023-02-21T22:31:46.314Z,2.55
2023-02-21T22:34:23.179Z,2.60
2023-02-21T22:36:52.178Z,2.49
2023-02-21T22:39:19.960Z,2.48
2023-02-21T22:41:48.941Z,2.62
2023-02-21T22:44:16.593Z,2.68
2023-02-21T22:46:47.931Z,2.70
2023-02-21T22:49:17.624Z,2.70
2023-02-21T22:51:44.518Z,2.63
2023-02-21T22:54:16.052Z,2.53
2023-02-21T22:56:51.024Z,2.42
2023-02-21T22:59:19.989Z,2.37
2023-02-21T23:01:47.028Z,2.31
2023-02-21T23:04:20.508Z,2.35
2023-02-21T23:06:47.314Z,2.34
2023-02-21T23:09:14.366Z,2.35
2023-02-21T23:11:53.094Z,2.30
2023-02-21T23:14:22.133Z,2.42
2023-02-21T23:16:49.342Z,2.43
2023-02-21T23:19:16.653Z,2.31
2023-02-21T23:21:44.316Z,2.39
2023-02-21T23:24:12.680Z,2.34
2023-02-21T23:26:46.593Z,2.10
2023-02-21T23:29:16.191Z,2.07
2023-02-21T23:31:43.079Z,1.95
2023-02-21T23:34:11.591Z,1.90
2023-02-21T23:36:41.807Z,1.84
2023-02-21T23:39:10.111Z,1.98
2023-02-21T23:41:41.333Z,1.93
2023-02-21T23:44:13.313Z,1.96
2023-02-21T23:46:42.542Z,2.03
2023-02-21T23:49:15.568Z,2.07
2023-02-21T23:51:44.210Z,2.13
2023-02-21T23:54:13.570Z,2.10
2023-02-21T23:56:40.454Z,2.06
2023-02-21T23:59:07.737Z,2.01
